createdAt,value
2018-06-25T00:01:04.371Z,54.90
2018-06-25T00:03:35.861Z,55.00
2018-06-25T00:06:07.940Z,55.10
2018-06-25T00:08:39.639Z,55.20
2018-06-25T00:11:11.097Z,55.20
2018-06-25T00:13:42.783Z,55.30
2018-06-25T00:16:14.378Z,55.30
2018-06-25T00:18:46.338Z,55.30
2018-06-25T00:21:17.887Z,55.30
2018-06-25T00:23:49.398Z,55.40
2018-06-25T00:26:21.496Z,55.30
2018-06-25T00:28:53.325Z,55.30
2018-06-25T00:31:24.967Z,55.40
2018-06-25T00:33:56.664Z,55.50
2018-06-25T00:36:28.157Z,55.50
2018-06-25T00:38:59.713Z,55.50
2018-06-25T00:41:31.480Z,55.50
2018-06-25T00:44:03.029Z,55.10
2018-06-25T00:46:34.647Z,55.70
2018-06-25T00:49:06.852Z,56.00
2018-06-25T00:51:38.731Z,56.30
2018-06-25T00:54:10.539Z,56.60
2018-06-25T00:56:42.181Z,56.70
2018-06-25T00:59:56.842Z,56.80
2018-06-25T01:02:28.646Z,56.90
2018-06-25T01:05:00.133Z,57.00
2018-06-25T01:07:31.661Z,57.20
2018-06-25T01:10:03.680Z,57.30
2018-06-25T01:12:35.171Z,57.30
2018-06-25T01:15:06.788Z,57.50
2018-06-25T01:17:39.390Z,57.70
2018-06-25T01:20:11.011Z,57.60
2018-06-25T01:22:42.599Z,57.70
2018-06-25T01:25:14.090Z,57.60
2018-06-25T01:27:45.802Z,57.60
2018-06-25T01:30:17.743Z,57.60
2018-06-25T01:32:49.368Z,57.80
2018-06-25T01:35:21.021Z,58.00
2018-06-25T01:37:52.525Z,57.80
2018-06-25T01:40:25.114Z,58.00
2018-06-25T01:42:56.730Z,58.00
2018-06-25T01:45:28.236Z,57.90
2018-06-25T01:47:59.742Z,58.00
2018-06-25T01:50:31.422Z,58.00
2018-06-25T01:53:03.065Z,58.10
2018-06-25T01:55:34.934Z,58.10
2018-06-25T01:58:06.778Z,58.20
2018-06-25T02:00:38.834Z,58.20
2018-06-25T02:03:10.381Z,58.40
2018-06-25T02:05:42.262Z,58.50
2018-06-25T02:08:13.775Z,58.70
2018-06-25T02:10:45.555Z,58.70
2018-06-25T02:13:17.105Z,59.10
2018-06-25T02:15:48.851Z,58.90
2018-06-25T02:18:20.525Z,59.00
2018-06-25T02:20:52.099Z,59.50
2018-06-25T02:23:23.591Z,59.40
2018-06-25T02:25:55.189Z,59.20
2018-06-25T02:28:26.697Z,59.10
2018-06-25T02:30:59.223Z,59.20
2018-06-25T02:33:30.664Z,59.20
2018-06-25T02:36:02.938Z,59.40
2018-06-25T02:38:34.705Z,59.40
2018-06-25T02:41:06.428Z,59.40
2018-06-25T02:43:38.032Z,59.40
2018-06-25T02:46:10.041Z,59.40
2018-06-25T02:48:41.941Z,59.40
2018-06-25T02:51:13.710Z,59.50
2018-06-25T02:53:49.087Z,59.60
2018-06-25T02:56:23.879Z,59.70
2018-06-25T02:58:58.581Z,59.50
2018-06-25T03:01:32.248Z,59.50
2018-06-25T03:04:06.016Z,59.40
2018-06-25T03:06:40.100Z,59.50
2018-06-25T03:11:50.804Z,59.60
2018-06-25T03:14:24.888Z,59.60
2018-06-25T03:16:57.589Z,59.60
2018-06-25T03:19:29.507Z,59.50
2018-06-25T03:22:01.178Z,59.70
2018-06-25T03:24:33.014Z,59.60
2018-06-25T03:27:04.566Z,59.50
2018-06-25T03:29:36.201Z,59.50
2018-06-25T03:32:08.264Z,59.50
2018-06-25T03:34:39.898Z,59.50
2018-06-25T03:37:12.493Z,59.60
2018-06-25T03:39:44.003Z,59.80
2018-06-25T03:42:15.548Z,59.70
2018-06-25T03:44:47.077Z,59.70
2018-06-25T03:49:49.551Z,59.60
2018-06-25T03:52:21.049Z,59.60
2018-06-25T03:54:52.998Z,59.60
2018-06-25T03:57:24.520Z,59.80
2018-06-25T03:59:56.090Z,59.80
2018-06-25T04:07:30.142Z,60.50
2018-06-25T04:10:01.654Z,60.00
2018-06-25T04:12:33.199Z,59.90
2018-06-25T04:15:05.229Z,59.90
2018-06-25T04:17:36.842Z,60.00
2018-06-25T04:20:08.434Z,60.10
2018-06-25T04:22:39.953Z,60.30
2018-06-25T04:25:11.535Z,60.30
2018-06-25T04:27:43.262Z,60.60
2018-06-25T04:30:14.849Z,60.60
2018-06-25T04:32:46.344Z,60.70
2018-06-25T04:35:17.855Z,60.90
2018-06-25T04:37:49.369Z,60.80
2018-06-25T04:40:20.887Z,61.10
2018-06-25T04:42:52.538Z,61.10
2018-06-25T04:45:24.111Z,60.50
2018-06-25T04:47:56.290Z,61.10
2018-06-25T04:50:27.929Z,61.00
2018-06-25T04:52:59.655Z,61.10
2018-06-25T04:55:31.238Z,61.20
2018-06-25T04:58:02.703Z,61.20
2018-06-25T05:00:34.181Z,61.30
2018-06-25T05:03:06.573Z,61.60
2018-06-25T05:08:09.246Z,61.50
2018-06-25T05:10:41.201Z,62.10
2018-06-25T05:13:12.898Z,61.50
2018-06-25T05:15:44.349Z,61.40
2018-06-25T05:18:15.957Z,61.60
2018-06-25T05:20:47.447Z,61.70
2018-06-25T05:23:19.061Z,61.70
2018-06-25T05:25:50.515Z,61.60
2018-06-25T05:28:23.080Z,61.80
2018-06-25T05:30:54.568Z,61.80
2018-06-25T05:33:26.150Z,61.70
2018-06-25T05:35:57.964Z,61.80
2018-06-25T05:38:29.888Z,61.90
2018-06-25T05:41:01.445Z,61.80
2018-06-25T05:43:32.994Z,61.70
2018-06-25T05:46:04.768Z,61.60
2018-06-25T05:48:36.449Z,61.50
2018-06-25T05:51:08.350Z,61.60
2018-06-25T05:53:39.842Z,61.50
2018-06-25T05:56:11.357Z,61.60
2018-06-25T05:58:43.386Z,61.50
2018-06-25T06:01:14.964Z,61.50
2018-06-25T06:03:46.559Z,61.50
2018-06-25T06:06:18.006Z,61.50
2018-06-25T06:08:49.811Z,61.50
2018-06-25T06:11:21.622Z,61.60
2018-06-25T06:13:53.183Z,61.50
2018-06-25T06:16:25.069Z,61.50
2018-06-25T06:18:57.026Z,61.50
2018-06-25T06:21:29.065Z,61.40
2018-06-25T06:24:00.850Z,62.20
2018-06-25T06:26:32.365Z,61.40
2018-06-25T06:29:03.899Z,61.60
2018-06-25T06:31:36.518Z,61.60
2018-06-25T06:34:08.057Z,61.60
2018-06-25T06:36:40.070Z,61.50
2018-06-25T06:39:15.391Z,61.50
2018-06-25T06:41:47.277Z,61.50
2018-06-25T06:44:18.951Z,61.40
2018-06-25T06:46:50.576Z,61.30
2018-06-25T06:49:27.518Z,61.20
2018-06-25T06:51:59.315Z,61.10
2018-06-25T06:54:30.966Z,61.10
2018-06-25T06:57:02.755Z,61.10
2018-06-25T06:59:34.988Z,61.00
2018-06-25T07:02:06.729Z,60.90
2018-06-25T07:04:38.664Z,61.00
2018-06-25T07:07:10.405Z,61.00
2018-06-25T07:09:41.985Z,61.00
2018-06-25T07:12:13.824Z,61.10
2018-06-25T07:14:46.542Z,61.00
2018-06-25T07:17:18.774Z,61.10
2018-06-25T07:19:50.677Z,61.50
2018-06-25T07:22:22.228Z,61.20
2018-06-25T07:24:54.199Z,61.30
2018-06-25T07:27:28.161Z,61.30
2018-06-25T07:29:59.729Z,61.30
2018-06-25T07:32:31.189Z,61.40
2018-06-25T07:35:03.150Z,61.60
2018-06-25T07:37:34.865Z,61.30
2018-06-25T07:40:07.149Z,61.10
2018-06-25T07:42:38.831Z,61.00
2018-06-25T07:45:11.205Z,60.90
2018-06-25T07:47:42.926Z,60.90
2018-06-25T07:50:15.083Z,60.60
2018-06-25T07:52:46.793Z,60.40
2018-06-25T07:55:19.949Z,60.20
2018-06-25T07:57:51.785Z,60.50
2018-06-25T08:00:24.120Z,60.00
2018-06-25T08:02:56.015Z,60.00
2018-06-25T08:05:27.949Z,59.90
2018-06-25T08:07:59.437Z,59.80
2018-06-25T08:10:31.059Z,59.60
2018-06-25T08:13:02.941Z,59.60
2018-06-25T08:15:35.156Z,59.70
2018-06-25T08:18:07.061Z,59.90
2018-06-25T08:20:38.831Z,59.70
2018-06-25T08:23:11.005Z,59.80
2018-06-25T08:25:42.908Z,59.80
2018-06-25T08:28:14.439Z,59.80
2018-06-25T08:30:46.736Z,59.70
2018-06-25T08:33:18.419Z,59.70
2018-06-25T08:35:50.644Z,59.60
2018-06-25T08:38:22.446Z,59.50
2018-06-25T08:40:54.523Z,59.30
2018-06-25T08:43:26.591Z,59.00
2018-06-25T08:45:59.155Z,58.80
2018-06-25T08:48:30.775Z,58.50
2018-06-25T08:53:34.338Z,57.90
2018-06-25T08:56:06.298Z,57.90
2018-06-25T08:58:37.973Z,58.00
2018-06-25T09:01:09.424Z,58.00
2018-06-25T09:03:41.289Z,57.90
2018-06-25T09:06:12.797Z,57.70
2018-06-25T09:08:44.352Z,57.80
2018-06-25T09:11:16.275Z,57.70
2018-06-25T09:13:47.849Z,57.90
2018-06-25T09:16:19.957Z,57.60
2018-06-25T09:18:51.665Z,57.10
2018-06-25T09:21:23.353Z,56.70
2018-06-25T09:23:54.879Z,56.50
2018-06-25T09:29:09.353Z,56.50
2018-06-25T09:34:17.280Z,56.90
2018-06-25T09:36:48.746Z,56.00
2018-06-25T09:39:20.196Z,56.30
2018-06-25T09:41:51.683Z,55.80
2018-06-25T09:44:23.236Z,55.70
2018-06-25T09:46:54.787Z,55.60
2018-06-25T09:49:26.507Z,55.70
2018-06-25T09:51:58.031Z,55.70
2018-06-25T09:54:29.702Z,55.70
2018-06-25T09:57:01.785Z,55.70
2018-06-25T09:59:33.286Z,55.60
2018-06-25T10:02:05.237Z,55.60
2018-06-25T10:04:36.885Z,55.30
2018-06-25T10:07:08.618Z,55.00
2018-06-25T10:09:40.322Z,54.80
2018-06-25T10:12:11.913Z,54.70
2018-06-25T10:14:43.465Z,54.60
2018-06-25T10:17:15.310Z,54.60
2018-06-25T10:19:47.000Z,54.70
2018-06-25T10:22:18.550Z,54.70
2018-06-25T10:27:21.757Z,54.50
2018-06-25T10:29:53.582Z,54.30
2018-06-25T10:32:25.342Z,54.10
2018-06-25T10:34:57.156Z,53.70
2018-06-25T10:37:28.876Z,53.60
2018-06-25T10:40:00.693Z,53.60
2018-06-25T10:42:32.511Z,53.60
2018-06-25T10:45:04.649Z,53.50
2018-06-25T10:47:36.558Z,53.60
2018-06-25T10:50:08.707Z,53.40
2018-06-25T10:52:40.452Z,54.10
2018-06-25T10:57:44.274Z,53.50
2018-06-25T11:00:16.245Z,53.50
2018-06-25T11:02:47.859Z,53.40
2018-06-25T11:05:19.814Z,53.40
2018-06-25T11:07:52.653Z,53.50
2018-06-25T11:10:24.609Z,53.60
2018-06-25T11:12:56.653Z,53.60
2018-06-25T11:17:59.245Z,53.60
2018-06-25T11:20:31.437Z,53.50
2018-06-25T11:23:03.888Z,53.50
2018-06-25T11:25:35.704Z,53.50
2018-06-25T11:28:08.297Z,53.70
2018-06-25T11:30:40.928Z,53.90
2018-06-25T11:33:14.935Z,54.00
2018-06-25T11:35:49.320Z,54.70
2018-06-25T11:38:21.837Z,54.20
2018-06-25T11:40:54.021Z,54.30
2018-06-25T11:43:25.542Z,54.30
2018-06-25T11:45:57.457Z,53.90
2018-06-25T11:51:00.194Z,53.60
2018-06-25T11:53:31.779Z,53.30
2018-06-25T11:56:03.686Z,53.10
2018-06-25T12:03:37.829Z,53.50
2018-06-25T12:06:09.747Z,53.30
2018-06-25T12:08:41.490Z,53.40
2018-06-25T12:11:13.454Z,53.80
2018-06-25T12:13:45.365Z,53.60
2018-06-25T12:16:16.890Z,53.40
2018-06-25T12:18:49.168Z,53.50
2018-06-25T12:21:21.396Z,53.80
2018-06-25T12:23:53.680Z,53.30
2018-06-25T12:26:26.011Z,52.20
2018-06-25T12:31:30.235Z,50.10
2018-06-25T12:34:02.480Z,49.10
2018-06-25T12:36:34.645Z,47.60
2018-06-25T12:39:10.521Z,46.40
2018-06-25T12:41:42.882Z,45.50
2018-06-25T12:44:15.082Z,45.50
2018-06-25T12:46:46.809Z,44.20
2018-06-25T12:49:18.431Z,44.30
2018-06-25T12:51:49.989Z,44.00
2018-06-25T12:54:22.418Z,44.30
2018-06-25T12:56:54.762Z,45.20
2018-06-25T12:59:27.766Z,45.40
2018-06-25T13:01:59.992Z,46.00
2018-06-25T13:07:04.782Z,45.50
2018-06-25T13:12:09.210Z,43.60
2018-06-25T13:14:41.569Z,42.60
2018-06-25T13:17:14.414Z,41.30
2018-06-25T13:19:46.884Z,40.90
2018-06-25T13:22:20.121Z,40.80
2018-06-25T13:24:52.995Z,40.30
2018-06-25T13:27:25.109Z,40.00
2018-06-25T13:29:57.729Z,39.10
2018-06-25T13:32:31.454Z,38.40
2018-06-25T13:35:03.605Z,38.10
2018-06-25T13:37:35.941Z,38.30
2018-06-25T13:40:08.593Z,38.90
2018-06-25T13:42:40.606Z,38.00
2018-06-25T13:50:15.766Z,37.40
2018-06-25T13:52:47.834Z,36.90
2018-06-25T13:55:20.085Z,36.30
2018-06-25T13:57:52.726Z,35.50
2018-06-25T14:00:25.335Z,35.40
2018-06-25T14:02:57.390Z,35.10
2018-06-25T14:05:36.248Z,34.70
2018-06-25T14:08:09.107Z,34.80
2018-06-25T14:10:41.763Z,34.80
2018-06-25T14:13:15.912Z,34.60
2018-06-25T14:15:48.346Z,34.70
2018-06-25T14:18:20.722Z,34.80
2018-06-25T14:20:53.969Z,34.80
2018-06-25T14:23:27.943Z,34.80
2018-06-25T14:26:05.162Z,34.90
2018-06-25T14:28:38.062Z,35.20
2018-06-25T14:31:15.283Z,35.60
2018-06-25T14:33:51.959Z,35.50
2018-06-25T14:36:23.671Z,35.30
2018-06-25T14:38:55.935Z,35.50
2018-06-25T14:41:27.649Z,35.70
2018-06-25T14:43:59.991Z,35.80
2018-06-25T14:46:31.596Z,36.10
2018-06-25T14:49:04.023Z,36.30
2018-06-25T14:51:35.613Z,36.40
2018-06-25T14:54:07.525Z,36.40
2018-06-25T14:56:39.297Z,36.60
2018-06-25T14:59:11.025Z,36.30
2018-06-25T15:04:14.298Z,36.20
2018-06-25T15:06:46.361Z,37.10
2018-06-25T15:09:18.532Z,36.60
2018-06-25T15:11:50.158Z,36.80
2018-06-25T15:14:22.034Z,36.90
2018-06-25T15:16:53.614Z,37.30
2018-06-25T15:19:26.145Z,37.30
2018-06-25T15:21:58.245Z,37.40
2018-06-25T15:24:30.628Z,37.80
2018-06-25T15:29:34.704Z,38.00
2018-06-25T15:32:06.962Z,38.00
2018-06-25T15:34:39.180Z,37.80
2018-06-25T15:37:11.697Z,37.60
2018-06-25T15:39:46.843Z,36.80
2018-06-25T15:42:20.205Z,36.70
2018-06-25T15:44:52.283Z,36.10
2018-06-25T15:47:24.810Z,35.50
2018-06-25T15:49:57.189Z,34.70
2018-06-25T15:52:30.052Z,34.20
2018-06-25T15:55:02.505Z,34.00
2018-06-25T15:57:35.091Z,34.00
2018-06-25T16:00:08.472Z,33.90
2018-06-25T16:02:41.058Z,33.50
2018-06-25T16:05:14.006Z,33.50
2018-06-25T16:07:52.865Z,33.50
2018-06-25T16:10:25.754Z,33.60
2018-06-25T16:15:29.876Z,33.30
2018-06-25T16:18:02.611Z,32.90
2018-06-25T16:20:35.629Z,32.70
2018-06-25T16:23:08.277Z,32.60
2018-06-25T16:25:40.940Z,32.40
2018-06-25T16:28:12.803Z,32.40
2018-06-25T16:30:44.748Z,32.30
2018-06-25T16:33:17.431Z,32.50
2018-06-25T16:35:50.093Z,32.50
2018-06-25T16:38:23.632Z,32.70
2018-06-25T16:40:56.948Z,32.80
2018-06-25T16:43:29.794Z,32.90
2018-06-25T16:48:32.704Z,33.20
2018-06-25T16:51:05.060Z,33.30
2018-06-25T16:53:37.434Z,33.50
2018-06-25T16:56:09.248Z,33.70
2018-06-25T16:58:40.957Z,33.70
2018-06-25T17:03:44.671Z,33.80
2018-06-25T17:08:47.803Z,34.00
2018-06-25T17:11:19.982Z,33.90
2018-06-25T17:13:52.774Z,34.00
2018-06-25T17:16:24.788Z,34.00
2018-06-25T17:18:57.524Z,34.20
2018-06-25T17:21:29.932Z,34.40
2018-06-25T17:24:01.523Z,34.30
2018-06-25T17:26:33.882Z,34.40
2018-06-25T17:29:05.752Z,34.60
2018-06-25T17:31:37.325Z,34.70
2018-06-25T17:34:08.967Z,34.80
2018-06-25T17:36:40.582Z,34.90
2018-06-25T17:39:13.106Z,34.80
2018-06-25T17:41:44.723Z,34.80
2018-06-25T17:44:17.105Z,34.90
2018-06-25T17:46:48.977Z,35.00
2018-06-25T17:49:21.467Z,34.70
2018-06-25T17:51:55.020Z,34.80
2018-06-25T17:54:26.694Z,34.90
2018-06-25T17:56:58.762Z,34.80
2018-06-25T17:59:31.595Z,34.90
2018-06-25T18:02:05.220Z,34.90
2018-06-25T18:04:38.155Z,35.00
2018-06-25T18:07:10.185Z,35.10
2018-06-25T18:09:42.703Z,35.20
2018-06-25T18:12:14.447Z,35.30
2018-06-25T18:14:46.529Z,35.30
2018-06-25T18:17:18.030Z,35.40
2018-06-25T18:19:49.635Z,35.50
2018-06-25T18:22:21.815Z,35.60
2018-06-25T18:24:53.422Z,35.80
2018-06-25T18:27:26.404Z,35.90
2018-06-25T18:29:58.008Z,36.10
2018-06-25T18:32:29.802Z,36.40
2018-06-25T18:35:01.516Z,36.50
2018-06-25T18:37:33.642Z,36.60
2018-06-25T18:40:06.332Z,36.70
2018-06-25T18:42:38.692Z,36.70
2018-06-25T18:45:11.277Z,36.90
2018-06-25T18:47:43.234Z,36.90
2018-06-25T18:50:14.943Z,37.00
2018-06-25T18:52:46.857Z,37.10
2018-06-25T18:55:18.629Z,37.20
2018-06-25T18:57:50.656Z,37.30
2018-06-25T19:00:22.213Z,37.40
2018-06-25T19:02:54.288Z,37.50
2018-06-25T19:05:25.930Z,37.60
2018-06-25T19:07:57.594Z,37.60
2018-06-25T19:10:29.622Z,37.70
2018-06-25T19:13:01.159Z,37.90
2018-06-25T19:15:33.064Z,38.00
2018-06-25T19:18:05.415Z,38.00
2018-06-25T19:20:37.081Z,38.10
2018-06-25T19:23:09.154Z,38.20
2018-06-25T19:25:40.801Z,38.50
2018-06-25T19:28:13.594Z,38.50
2018-06-25T19:30:45.154Z,38.60
2018-06-25T19:35:49.224Z,38.80
2018-06-25T19:38:22.436Z,38.70
2018-06-25T19:43:25.334Z,38.90
2018-06-25T19:45:56.971Z,39.00
2018-06-25T19:48:28.737Z,39.10
2018-06-25T19:51:00.345Z,39.20
2018-06-25T19:53:32.646Z,39.20
2018-06-25T19:56:06.220Z,39.40
2018-06-25T19:58:38.136Z,39.40
2018-06-25T20:01:10.884Z,39.60
2018-06-25T20:03:43.266Z,39.70
2018-06-25T20:06:16.061Z,39.60
2018-06-25T20:08:48.737Z,39.90
2018-06-25T20:11:20.474Z,40.10
2018-06-25T20:13:52.503Z,40.10
2018-06-25T20:16:24.784Z,40.30
2018-06-25T20:18:56.762Z,40.40
2018-06-25T20:21:28.587Z,40.50
2018-06-25T20:24:01.012Z,40.60
2018-06-25T20:26:35.879Z,40.80
2018-06-25T20:29:08.098Z,40.90
2018-06-25T20:31:39.687Z,41.10
2018-06-25T20:34:11.340Z,41.30
2018-06-25T20:36:43.621Z,41.30
2018-06-25T20:39:15.329Z,41.50
2018-06-25T20:41:47.734Z,41.70
2018-06-25T20:44:19.312Z,41.80
2018-06-25T20:46:50.840Z,41.90
2018-06-25T20:49:22.591Z,42.10
2018-06-25T20:51:56.021Z,42.20
2018-06-25T20:54:27.848Z,42.30
2018-06-25T20:56:59.557Z,42.50
2018-06-25T20:59:31.096Z,42.60
2018-06-25T21:02:02.801Z,42.80
2018-06-25T21:04:35.658Z,42.80
2018-06-25T21:07:07.786Z,43.00
2018-06-25T21:09:39.430Z,43.00
2018-06-25T21:12:11.239Z,43.20
2018-06-25T21:14:43.090Z,43.30
2018-06-25T21:17:15.246Z,43.50
2018-06-25T21:19:46.912Z,43.40
2018-06-25T21:22:18.698Z,43.60
2018-06-25T21:24:50.274Z,43.70
2018-06-25T21:27:21.812Z,43.90
2018-06-25T21:29:53.645Z,43.90
2018-06-25T21:32:25.186Z,44.00
2018-06-25T21:34:56.810Z,44.00
2018-06-25T21:37:28.349Z,44.10
2018-06-25T21:39:59.922Z,44.40
2018-06-25T21:42:31.681Z,44.30
2018-06-25T21:45:04.704Z,44.40
2018-06-25T21:47:36.693Z,44.40
2018-06-25T21:50:08.693Z,44.40
2018-06-25T21:52:40.348Z,44.40
2018-06-25T21:55:11.833Z,44.40
2018-06-25T21:57:43.778Z,44.50
2018-06-25T22:00:15.392Z,44.60
2018-06-25T22:02:47.061Z,45.30
2018-06-25T22:05:18.765Z,44.80
2018-06-25T22:07:50.349Z,44.80
2018-06-25T22:10:22.489Z,44.90
2018-06-25T22:15:25.258Z,44.90
2018-06-25T22:17:56.967Z,45.10
2018-06-25T22:20:29.233Z,45.10
2018-06-25T22:23:01.057Z,45.20
2018-06-25T22:25:33.214Z,45.00
2018-06-25T22:30:37.159Z,45.40
2018-06-25T22:35:40.322Z,45.50
2018-06-25T22:38:11.809Z,45.60
2018-06-25T22:40:43.908Z,45.70
2018-06-25T22:43:15.496Z,45.80
2018-06-25T22:45:47.362Z,45.90
2018-06-25T22:48:18.911Z,45.90
2018-06-25T22:50:50.549Z,45.90
2018-06-25T22:53:22.446Z,46.00
2018-06-25T22:55:53.897Z,46.10
2018-06-25T22:58:25.491Z,46.20
2018-06-25T23:00:57.078Z,46.30
2018-06-25T23:03:28.649Z,46.40
2018-06-25T23:06:00.285Z,46.40
2018-06-25T23:08:32.391Z,46.40
2018-06-25T23:13:35.009Z,46.60
2018-06-25T23:18:38.053Z,46.70
2018-06-25T23:21:09.891Z,46.70
2018-06-25T23:23:42.883Z,46.90
2018-06-25T23:31:16.658Z,47.00
2018-06-25T23:33:48.161Z,47.00
2018-06-25T23:36:20.035Z,47.20
2018-06-25T23:38:51.658Z,47.20
2018-06-25T23:41:23.509Z,47.30
2018-06-25T23:46:26.059Z,47.40
2018-06-25T23:48:57.670Z,47.50
2018-06-25T23:51:29.263Z,47.50
2018-06-25T23:54:00.871Z,47.60
2018-06-25T23:56:32.474Z,47.60
2018-06-25T23:59:04.113Z,47.60
